createdAt,value
2022-10-28T00:02:22.347Z,16.21
2022-10-28T00:04:52.239Z,16.18
2022-10-28T00:07:23.137Z,16.18
2022-10-28T00:09:51.020Z,16.18
2022-10-28T00:12:20.860Z,16.18
2022-10-28T00:14:50.150Z,16.18
2022-10-28T00:17:18.165Z,16.17
2022-10-28T00:19:46.401Z,16.18
2022-10-28T00:22:14.404Z,16.18
2022-10-28T00:24:42.285Z,16.20
2022-10-28T00:27:12.351Z,16.22
2022-10-28T00:29:40.228Z,16.27
2022-10-28T00:32:09.556Z,16.31
2022-10-28T00:34:37.724Z,16.35
2022-10-28T00:37:05.670Z,16.36
2022-10-28T00:39:33.536Z,16.39
2022-10-28T00:42:03.687Z,16.43
2022-10-28T00:45:01.134Z,16.48
2022-10-28T00:47:44.050Z,16.50
2022-10-28T00:50:29.750Z,16.52
2022-10-28T00:53:01.915Z,16.53
2022-10-28T00:55:30.916Z,16.55
2022-10-28T00:58:04.933Z,16.54
2022-10-28T01:00:35.212Z,16.55
2022-10-28T01:03:05.238Z,16.54
2022-10-28T01:05:36.100Z,16.53
2022-10-28T01:08:05.702Z,16.52
2022-10-28T01:10:52.148Z,16.52
2022-10-28T01:13:33.676Z,16.53
2022-10-28T01:16:13.998Z,16.54
2022-10-28T01:18:52.347Z,16.53
2022-10-28T01:22:04.238Z,16.52
2022-10-28T01:24:47.694Z,16.51
2022-10-28T01:27:57.155Z,16.52
2022-10-28T01:30:28.232Z,16.51
2022-10-28T01:33:05.851Z,16.51
2022-10-28T01:35:49.651Z,16.51
2022-10-28T01:38:34.768Z,16.52
2022-10-28T01:41:09.215Z,16.53
2022-10-28T01:43:47.565Z,16.54
2022-10-28T01:46:20.556Z,16.53
2022-10-28T01:48:59.078Z,16.53
2022-10-28T01:51:33.465Z,16.52
2022-10-28T01:54:10.521Z,16.51
2022-10-28T01:56:44.328Z,16.50
2022-10-28T01:59:16.147Z,16.50
2022-10-28T02:01:44.510Z,16.51
2022-10-28T02:04:14.123Z,16.51
2022-10-28T02:06:44.253Z,16.50
2022-10-28T02:09:26.556Z,16.49
2022-10-28T02:12:12.896Z,16.44
2022-10-28T02:15:06.191Z,16.40
2022-10-28T02:17:46.158Z,16.35
2022-10-28T02:20:28.511Z,16.30
2022-10-28T02:23:03.811Z,16.27
2022-10-28T02:25:37.075Z,16.24
2022-10-28T02:28:09.007Z,16.22
2022-10-28T02:30:46.853Z,16.22
2022-10-28T02:33:19.902Z,16.20
2022-10-28T02:35:53.688Z,16.19
2022-10-28T02:38:27.710Z,16.18
2022-10-28T02:41:00.814Z,16.17
2022-10-28T02:43:30.075Z,16.17
2022-10-28T02:46:01.418Z,16.16
2022-10-28T02:48:34.439Z,16.13
2022-10-28T02:51:08.469Z,16.09
2022-10-28T02:53:44.075Z,16.06
2022-10-28T02:56:17.388Z,16.03
2022-10-28T02:58:49.262Z,16.01
2022-10-28T03:01:17.464Z,16.00
2022-10-28T03:03:45.580Z,15.99
2022-10-28T03:06:14.851Z,15.98
2022-10-28T03:08:42.764Z,15.99
2022-10-28T03:11:10.697Z,15.99
2022-10-28T03:13:38.886Z,16.00
2022-10-28T03:16:08.641Z,15.97
2022-10-28T03:18:36.566Z,15.94
2022-10-28T03:21:04.465Z,15.94
2022-10-28T03:23:33.815Z,15.92
2022-10-28T03:26:01.697Z,15.91
2022-10-28T03:28:29.796Z,15.90
2022-10-28T03:30:57.671Z,15.89
2022-10-28T03:33:25.507Z,15.89
2022-10-28T03:35:55.849Z,15.88
2022-10-28T03:38:23.744Z,15.88
2022-10-28T03:40:53.135Z,15.89
2022-10-28T03:43:20.986Z,15.89
2022-10-28T03:45:49.192Z,15.91
2022-10-28T03:48:19.085Z,15.92
2022-10-28T03:50:46.967Z,15.93
2022-10-28T03:53:16.269Z,15.93
2022-10-28T03:55:44.196Z,15.95
2022-10-28T03:58:13.435Z,15.97
2022-10-28T04:00:41.309Z,15.98
2022-10-28T04:03:09.187Z,15.98
2022-10-28T04:05:39.129Z,15.99
2022-10-28T04:08:07.068Z,15.97
2022-10-28T04:10:35.010Z,15.89
2022-10-28T04:13:06.369Z,15.79
2022-10-28T04:15:35.658Z,15.67
2022-10-28T04:18:04.123Z,15.59
2022-10-28T04:20:32.874Z,15.54
2022-10-28T04:23:01.450Z,15.48
2022-10-28T04:25:32.278Z,15.47
2022-10-28T04:28:00.170Z,15.45
2022-10-28T04:30:28.082Z,15.42
2022-10-28T04:32:57.407Z,15.40
2022-10-28T04:35:25.880Z,15.39
2022-10-28T04:37:54.134Z,15.39
2022-10-28T04:40:29.415Z,15.38
2022-10-28T04:43:02.168Z,15.38
2022-10-28T04:45:30.170Z,15.38
2022-10-28T04:48:00.473Z,15.38
2022-10-28T04:50:29.482Z,15.36
2022-10-28T04:52:57.415Z,15.36
2022-10-28T04:55:25.324Z,15.36
2022-10-28T04:57:56.425Z,15.34
2022-10-28T05:00:25.043Z,15.35
2022-10-28T05:02:55.873Z,15.37
2022-10-28T05:05:25.820Z,15.37
2022-10-28T05:07:53.915Z,15.40
2022-10-28T05:10:22.200Z,15.40
2022-10-28T05:12:50.304Z,15.42
2022-10-28T05:15:21.159Z,15.43
2022-10-28T05:17:49.081Z,15.43
2022-10-28T05:20:26.406Z,15.45
2022-10-28T05:22:57.168Z,15.45
2022-10-28T05:25:25.803Z,15.46
2022-10-28T05:27:53.800Z,15.46
2022-10-28T05:30:24.143Z,15.45
2022-10-28T05:32:57.664Z,15.36
2022-10-28T05:35:32.142Z,15.26
2022-10-28T05:38:01.542Z,15.14
2022-10-28T05:40:29.700Z,15.05
2022-10-28T05:42:57.561Z,14.98
2022-10-28T05:45:25.522Z,14.90
2022-10-28T05:47:53.949Z,14.87
2022-10-28T05:50:22.720Z,14.88
2022-10-28T05:52:52.226Z,14.83
2022-10-28T05:55:27.739Z,14.83
2022-10-28T05:57:56.811Z,14.81
2022-10-28T06:00:27.135Z,14.75
2022-10-28T06:03:03.080Z,14.68
2022-10-28T06:05:33.259Z,14.67
2022-10-28T06:08:03.655Z,14.66
2022-10-28T06:10:36.249Z,14.64
2022-10-28T06:13:02.653Z,14.64
2022-10-28T06:15:30.681Z,14.58
2022-10-28T06:17:58.704Z,14.53
2022-10-28T06:20:26.609Z,14.43
2022-10-28T06:22:56.284Z,14.32
2022-10-28T06:25:25.949Z,14.25
2022-10-28T06:27:57.182Z,14.19
2022-10-28T06:30:26.570Z,14.13
2022-10-28T06:32:56.297Z,14.10
2022-10-28T06:35:24.317Z,14.10
2022-10-28T06:37:54.652Z,14.07
2022-10-28T06:40:23.322Z,14.07
2022-10-28T06:43:01.880Z,14.02
2022-10-28T06:45:31.244Z,13.98
2022-10-28T06:48:04.746Z,13.95
2022-10-28T06:50:33.825Z,13.93
2022-10-28T06:53:01.701Z,13.89
2022-10-28T06:55:32.592Z,13.85
2022-10-28T06:58:07.858Z,13.83
2022-10-28T07:00:40.844Z,13.80
2022-10-28T07:03:10.324Z,13.78
2022-10-28T07:05:38.525Z,13.76
2022-10-28T07:08:07.071Z,13.76
2022-10-28T07:10:35.037Z,13.79
2022-10-28T07:13:07.181Z,13.81
2022-10-28T07:15:35.099Z,13.84
2022-10-28T07:18:03.044Z,13.85
2022-10-28T07:20:33.027Z,13.84
2022-10-28T07:23:02.476Z,13.81
2022-10-28T07:25:31.801Z,13.84
2022-10-28T07:28:00.044Z,13.86
2022-10-28T07:30:36.728Z,13.89
2022-10-28T07:33:11.096Z,13.96
2022-10-28T07:35:41.166Z,13.96
2022-10-28T07:38:09.120Z,13.94
2022-10-28T07:40:37.089Z,13.92
2022-10-28T07:43:05.030Z,13.91
2022-10-28T07:45:35.689Z,13.90
2022-10-28T07:48:03.810Z,13.94
2022-10-28T07:50:31.746Z,14.01
2022-10-28T07:53:01.112Z,14.06
2022-10-28T07:55:29.096Z,14.12
2022-10-28T07:57:57.234Z,14.17
2022-10-28T08:00:25.434Z,14.22
2022-10-28T08:02:55.166Z,14.26
2022-10-28T08:05:23.556Z,14.26
2022-10-28T08:07:51.819Z,14.23
2022-10-28T08:10:19.931Z,14.19
2022-10-28T08:12:50.205Z,14.17
2022-10-28T08:15:18.832Z,14.14
2022-10-28T08:17:52.566Z,14.13
2022-10-28T08:20:30.942Z,14.12
2022-10-28T08:23:02.772Z,14.13
2022-10-28T08:25:33.202Z,14.12
2022-10-28T08:28:01.075Z,14.11
2022-10-28T08:30:30.859Z,14.11
2022-10-28T08:33:01.212Z,14.11
2022-10-28T08:35:30.477Z,14.11
2022-10-28T08:37:59.994Z,14.14
2022-10-28T08:40:34.238Z,14.18
2022-10-28T08:43:07.264Z,14.20
2022-10-28T08:45:45.632Z,14.22
2022-10-28T08:48:21.396Z,14.24
2022-10-28T08:51:00.039Z,14.29
2022-10-28T08:53:33.375Z,14.35
2022-10-28T08:56:14.296Z,14.39
2022-10-28T08:58:45.383Z,14.42
2022-10-28T09:01:22.559Z,14.44
2022-10-28T09:03:54.392Z,14.45
2022-10-28T09:06:23.682Z,14.44
2022-10-28T09:08:52.948Z,14.43
2022-10-28T09:11:47.952Z,14.42
2022-10-28T09:14:52.865Z,14.41
2022-10-28T09:17:22.421Z,14.40
2022-10-28T09:19:53.805Z,14.42
2022-10-28T09:22:32.957Z,14.42
2022-10-28T09:25:03.644Z,14.45
2022-10-28T09:28:11.055Z,14.47
2022-10-28T09:44:37.050Z,15.13
2022-10-28T09:47:14.383Z,15.18
2022-10-28T09:49:42.981Z,15.25
2022-10-28T09:52:16.294Z,15.28
2022-10-28T09:54:49.732Z,15.28
2022-10-28T09:57:17.766Z,15.28
2022-10-28T09:59:48.065Z,15.28
2022-10-28T10:02:27.672Z,15.29
2022-10-28T10:04:56.708Z,15.33
2022-10-28T10:07:33.040Z,15.34
2022-10-28T10:10:06.196Z,15.38
2022-10-28T10:12:35.186Z,15.43
2022-10-28T10:15:08.175Z,15.48
2022-10-28T10:17:40.946Z,15.48
2022-10-28T10:20:11.147Z,15.45
2022-10-28T10:22:40.926Z,15.43
2022-10-28T10:25:26.305Z,15.42
2022-10-28T10:27:57.748Z,15.44
2022-10-28T10:30:30.574Z,15.48
2022-10-28T10:32:59.848Z,15.53
2022-10-28T10:35:30.512Z,15.58
2022-10-28T10:38:00.948Z,15.62
2022-10-28T10:40:32.239Z,15.69
2022-10-28T10:43:24.643Z,15.75
2022-10-28T10:46:02.894Z,15.81
2022-10-28T10:48:32.401Z,15.89
2022-10-28T10:51:07.044Z,15.97
2022-10-28T10:53:36.573Z,16.08
2022-10-28T10:56:07.161Z,16.21
2022-10-28T10:58:38.814Z,16.31
2022-10-28T11:01:09.970Z,16.40
2022-10-28T11:03:41.107Z,16.48
2022-10-28T11:06:23.495Z,16.57
2022-10-28T11:08:58.659Z,16.58
2022-10-28T11:11:34.526Z,16.60
2022-10-28T11:14:08.834Z,16.57
2022-10-28T11:16:50.292Z,16.59
2022-10-28T11:19:22.678Z,16.58
2022-10-28T11:22:14.027Z,16.56
2022-10-28T11:25:02.047Z,16.61
2022-10-28T11:27:40.921Z,16.67
2022-10-28T11:30:14.971Z,16.69
2022-10-28T11:33:14.842Z,16.83
2022-10-28T11:35:54.301Z,17.00
2022-10-28T11:38:45.576Z,17.05
2022-10-28T11:41:25.240Z,17.22
2022-10-28T11:43:55.766Z,17.29
2022-10-28T11:46:37.733Z,17.43
2022-10-28T11:49:30.945Z,17.60
2022-10-28T11:52:09.093Z,17.75
2022-10-28T11:54:50.320Z,17.85
2022-10-28T11:57:24.818Z,17.74
2022-10-28T12:00:15.915Z,17.64
2022-10-28T12:02:59.796Z,17.57
2022-10-28T12:05:34.587Z,17.43
2022-10-28T12:08:22.003Z,17.38
2022-10-28T12:11:02.269Z,17.38
2022-10-28T12:13:38.980Z,17.51
2022-10-28T12:16:14.644Z,17.67
2022-10-28T12:18:52.670Z,17.82
2022-10-28T12:21:29.267Z,17.95
2022-10-28T12:23:59.389Z,18.02
2022-10-28T12:26:37.075Z,18.03
2022-10-28T12:29:11.408Z,18.16
2022-10-28T12:31:44.629Z,18.24
2022-10-28T12:34:17.510Z,18.31
2022-10-28T12:36:52.958Z,18.25
2022-10-28T12:39:26.669Z,18.11
2022-10-28T12:42:01.276Z,18.00
2022-10-28T12:44:30.050Z,17.99
2022-10-28T12:47:17.716Z,17.97
2022-10-28T12:49:58.524Z,17.81
2022-10-28T12:52:39.000Z,17.73
2022-10-28T12:55:17.171Z,17.91
2022-10-28T12:57:49.218Z,18.21
2022-10-28T13:00:21.109Z,18.40
2022-10-28T13:02:56.626Z,18.25
2022-10-28T13:05:27.645Z,18.35
2022-10-28T13:08:24.502Z,18.55
2022-10-28T13:10:59.511Z,18.66
2022-10-28T13:13:42.371Z,18.67
2022-10-28T13:16:29.914Z,18.57
2022-10-28T13:19:26.449Z,18.89
2022-10-28T13:25:19.349Z,19.77
2022-10-28T13:27:48.635Z,20.06
2022-10-28T13:30:18.255Z,20.28
2022-10-28T13:32:46.908Z,20.04
2022-10-28T13:35:23.007Z,19.71
2022-10-28T13:37:54.493Z,19.36
2022-10-28T13:41:02.881Z,19.01
2022-10-28T13:44:00.387Z,18.72
2022-10-28T13:47:06.906Z,18.51
2022-10-28T13:49:35.449Z,18.33
2022-10-28T13:52:06.307Z,18.24
2022-10-28T13:54:53.773Z,18.32
2022-10-28T13:57:28.763Z,18.63
2022-10-28T13:59:59.807Z,18.89
2022-10-28T14:02:38.359Z,19.26
2022-10-28T14:05:09.336Z,19.46
2022-10-28T14:07:39.910Z,19.38
2022-10-28T14:10:24.457Z,19.12
2022-10-28T14:12:58.927Z,19.06
2022-10-28T14:15:31.771Z,19.09
2022-10-28T14:18:15.641Z,19.13
2022-10-28T14:21:00.934Z,19.27
2022-10-28T14:24:01.873Z,19.28
2022-10-28T14:26:30.000Z,19.22
2022-10-28T14:28:59.603Z,19.30
2022-10-28T14:31:44.314Z,19.37
2022-10-28T14:34:46.994Z,18.93
2022-10-28T14:37:48.333Z,18.65
2022-10-28T14:40:24.645Z,18.41
2022-10-28T14:43:27.863Z,18.30
2022-10-28T14:46:12.479Z,18.16
2022-10-28T14:48:48.882Z,18.13
2022-10-28T14:51:20.040Z,18.11
2022-10-28T14:53:49.564Z,18.02
2022-10-28T14:58:59.785Z,17.93
2022-10-28T15:01:36.364Z,17.99
2022-10-28T15:04:12.072Z,18.10
2022-10-28T15:06:43.125Z,18.37
2022-10-28T15:09:19.558Z,18.48
2022-10-28T15:11:50.862Z,18.64
2022-10-28T15:14:31.974Z,18.91
2022-10-28T15:17:10.479Z,18.93
2022-10-28T15:19:38.695Z,19.05
2022-10-28T15:22:22.394Z,19.20
2022-10-28T15:25:04.610Z,19.26
2022-10-28T15:27:34.949Z,19.34
2022-10-28T15:30:04.258Z,19.36
2022-10-28T15:32:35.903Z,19.37
2022-10-28T15:35:39.365Z,19.43
2022-10-28T15:38:34.269Z,19.42
2022-10-28T15:41:02.668Z,19.37
2022-10-28T15:43:32.309Z,19.29
2022-10-28T15:46:11.197Z,19.14
2022-10-28T15:48:40.853Z,19.02
2022-10-28T15:51:13.381Z,18.80
2022-10-28T15:53:42.735Z,18.47
2022-10-28T15:56:20.029Z,18.19
2022-10-28T15:58:50.498Z,18.01
2022-10-28T16:01:38.367Z,17.92
2022-10-28T16:04:28.661Z,17.91
2022-10-28T16:06:58.997Z,17.82
2022-10-28T16:09:32.245Z,17.70
2022-10-28T16:12:04.934Z,17.58
2022-10-28T16:14:38.764Z,17.49
2022-10-28T16:17:10.617Z,17.42
2022-10-28T16:19:42.390Z,17.32
2022-10-28T16:22:13.771Z,17.19
2022-10-28T16:24:41.909Z,17.05
2022-10-28T16:27:18.079Z,16.92
2022-10-28T16:29:46.169Z,16.80
2022-10-28T16:32:15.313Z,16.67
2022-10-28T16:34:44.913Z,16.58
2022-10-28T16:37:23.342Z,16.49
2022-10-28T16:39:51.386Z,16.39
2022-10-28T16:42:20.650Z,16.32
2022-10-28T16:44:48.862Z,16.25
2022-10-28T16:47:18.315Z,16.19
2022-10-28T16:49:54.064Z,16.12
2022-10-28T16:52:27.449Z,16.05
2022-10-28T16:54:55.459Z,16.00
2022-10-28T16:57:26.172Z,15.94
2022-10-28T16:59:54.588Z,15.89
2022-10-28T17:02:27.198Z,15.83
2022-10-28T17:04:56.877Z,15.78
2022-10-28T17:07:25.299Z,15.73
2022-10-28T17:09:53.408Z,15.69
2022-10-28T17:12:23.162Z,15.65
2022-10-28T17:14:51.751Z,15.62
2022-10-28T17:17:20.592Z,15.59
2022-10-28T17:19:48.627Z,15.57
2022-10-28T17:22:18.228Z,15.55
2022-10-28T17:24:46.475Z,15.53
2022-10-28T17:27:14.726Z,15.49
2022-10-28T17:29:42.797Z,15.44
2022-10-28T17:32:11.140Z,15.40
2022-10-28T17:34:39.440Z,15.36
2022-10-28T17:37:07.993Z,15.32
2022-10-28T17:39:38.073Z,15.28
2022-10-28T17:42:06.516Z,15.26
2022-10-28T17:44:34.678Z,15.24
2022-10-28T17:47:03.143Z,15.22
2022-10-28T17:49:34.352Z,15.19
2022-10-28T17:52:02.557Z,15.18
2022-10-28T17:54:30.878Z,15.16
2022-10-28T17:57:00.353Z,15.15
2022-10-28T17:59:28.573Z,15.14
2022-10-28T18:01:56.651Z,15.11
2022-10-28T18:04:26.508Z,15.07
2022-10-28T18:06:55.679Z,15.04
2022-10-28T18:09:23.721Z,15.02
2022-10-28T18:11:52.118Z,14.99
2022-10-28T18:14:21.957Z,14.97
2022-10-28T18:16:51.332Z,14.94
2022-10-28T18:19:22.371Z,14.91
2022-10-28T18:21:50.557Z,14.88
2022-10-28T18:24:20.570Z,14.87
2022-10-28T18:26:51.571Z,14.85
2022-10-28T18:29:21.022Z,14.84
2022-10-28T18:31:49.224Z,14.81
2022-10-28T18:34:17.287Z,14.79
2022-10-28T18:36:45.349Z,14.76
2022-10-28T18:39:13.290Z,14.73
2022-10-28T18:41:42.953Z,14.71
2022-10-28T18:44:14.196Z,14.69
2022-10-28T18:46:45.351Z,14.66
2022-10-28T18:49:13.712Z,14.65
2022-10-28T18:51:41.878Z,14.63
2022-10-28T18:54:10.021Z,14.62
2022-10-28T18:56:38.497Z,14.62
2022-10-28T18:59:06.693Z,14.61
2022-10-28T19:01:35.182Z,14.59
2022-10-28T19:04:05.790Z,14.58
2022-10-28T19:06:34.665Z,14.57
2022-10-28T19:09:05.203Z,14.57
2022-10-28T19:11:34.526Z,14.56
2022-10-28T19:14:04.513Z,14.54
2022-10-28T19:16:34.234Z,14.54
2022-10-28T19:19:05.162Z,14.52
2022-10-28T19:21:33.891Z,14.51
2022-10-28T19:24:02.743Z,14.51
2022-10-28T19:26:32.111Z,14.50
2022-10-28T19:29:00.185Z,14.49
2022-10-28T19:31:28.761Z,14.45
2022-10-28T19:33:56.868Z,14.43
2022-10-28T19:36:27.980Z,14.39
2022-10-28T19:38:56.879Z,14.36
2022-10-28T19:41:26.620Z,14.32
2022-10-28T19:43:58.164Z,14.30
2022-10-28T19:46:28.070Z,14.28
2022-10-28T19:48:57.652Z,14.26
2022-10-28T19:51:28.785Z,14.25
2022-10-28T19:53:58.357Z,14.24
2022-10-28T19:56:26.949Z,14.22
2022-10-28T19:58:56.525Z,14.21
2022-10-28T20:01:27.324Z,14.20
2022-10-28T20:03:56.618Z,14.18
2022-10-28T20:06:27.925Z,14.16
2022-10-28T20:08:55.893Z,14.14
2022-10-28T20:11:26.522Z,14.13
2022-10-28T20:13:56.524Z,14.11
2022-10-28T20:16:26.068Z,14.10
2022-10-28T20:18:55.128Z,14.09
2022-10-28T20:21:24.859Z,14.08
2022-10-28T20:23:56.181Z,14.06
2022-10-28T20:26:25.782Z,14.06
2022-10-28T20:28:54.066Z,14.01
2022-10-28T20:31:23.557Z,13.96
2022-10-28T20:33:53.384Z,13.90
2022-10-28T20:36:26.668Z,13.86
2022-10-28T20:38:59.502Z,13.83
2022-10-28T20:41:29.350Z,13.79
2022-10-28T20:43:57.720Z,13.78
2022-10-28T20:46:26.829Z,13.76
2022-10-28T20:48:56.605Z,13.75
2022-10-28T20:51:26.711Z,13.77
2022-10-28T20:53:56.691Z,13.81
2022-10-28T20:56:26.442Z,13.84
2022-10-28T20:58:54.943Z,13.85
2022-10-28T21:01:25.435Z,13.86
2022-10-28T21:03:55.922Z,13.86
2022-10-28T21:06:24.268Z,13.87
2022-10-28T21:08:53.602Z,13.86
2022-10-28T21:11:26.209Z,13.87
2022-10-28T21:13:56.191Z,13.87
2022-10-28T21:16:25.418Z,13.87
2022-10-28T21:18:54.243Z,13.88
2022-10-28T21:21:24.123Z,13.90
2022-10-28T21:23:52.812Z,13.92
2022-10-28T21:26:22.730Z,13.94
2022-10-28T21:28:51.868Z,13.95
2022-10-28T21:31:21.458Z,13.97
2022-10-28T21:36:19.851Z,14.01
2022-10-28T21:38:48.425Z,14.03
2022-10-28T21:41:18.712Z,14.05
2022-10-28T21:43:49.308Z,14.07
2022-10-28T21:46:18.147Z,14.08
2022-10-28T21:48:46.406Z,14.09
2022-10-28T21:51:16.060Z,14.09
2022-10-28T21:53:45.127Z,14.10
2022-10-28T21:56:17.659Z,14.12
2022-10-28T21:58:49.696Z,14.14
2022-10-28T22:01:20.350Z,14.14
2022-10-28T22:03:48.724Z,14.15
2022-10-28T22:06:16.999Z,14.16
2022-10-28T22:08:45.019Z,14.17
2022-10-28T22:11:15.633Z,14.16
2022-10-28T22:13:43.854Z,14.16
2022-10-28T22:16:14.774Z,14.17
2022-10-28T22:18:43.568Z,14.17
2022-10-28T22:21:13.924Z,14.15
2022-10-28T22:23:42.155Z,14.16
2022-10-28T22:26:12.658Z,14.16
2022-10-28T22:28:41.181Z,14.16
2022-10-28T22:31:11.391Z,14.14
2022-10-28T22:33:40.978Z,14.13
2022-10-28T22:36:10.633Z,14.12
2022-10-28T22:38:39.006Z,14.12
2022-10-28T22:41:09.287Z,14.12
2022-10-28T22:43:37.404Z,14.13
2022-10-28T22:46:05.937Z,14.13
2022-10-28T22:48:34.227Z,14.13
2022-10-28T22:51:04.082Z,14.14
2022-10-28T22:53:32.614Z,14.13
2022-10-28T22:56:00.627Z,14.13
2022-10-28T22:58:29.454Z,14.13
2022-10-28T23:01:06.527Z,14.14
2022-10-28T23:03:38.623Z,14.15
2022-10-28T23:06:09.123Z,14.17
2022-10-28T23:08:38.900Z,14.18
2022-10-28T23:11:10.685Z,14.18
2022-10-28T23:13:39.177Z,14.19
2022-10-28T23:16:09.245Z,14.19
2022-10-28T23:18:37.513Z,14.19
2022-10-28T23:21:08.997Z,14.19
2022-10-28T23:23:37.007Z,14.21
2022-10-28T23:26:05.159Z,14.23
2022-10-28T23:28:33.252Z,14.23
2022-10-28T23:31:02.228Z,14.25
2022-10-28T23:33:30.996Z,14.27
2022-10-28T23:35:59.831Z,14.26
2022-10-28T23:38:29.506Z,14.26
2022-10-28T23:41:02.090Z,14.27
2022-10-28T23:43:31.616Z,14.26
2022-10-28T23:46:00.248Z,14.25
2022-10-28T23:48:33.414Z,14.26
2022-10-28T23:51:01.685Z,14.26
2022-10-28T23:53:31.480Z,14.27
2022-10-28T23:55:59.614Z,14.27
2022-10-28T23:58:27.974Z,14.28
